sensor_id;sensor_type;location;lat;lon;timestamp;pressure;altitude;pressure_sealevel;temperature;humidity
69570;BME280;56781;42.292;23.146;2023-09-18T00:00:48;96025.81;;;13.78;100.00
69570;BME280;56781;42.292;23.146;2023-09-18T00:03:19;96026.44;;;13.74;100.00
69570;BME280;56781;42.292;23.146;2023-09-18T00:05:47;96022.69;;;13.84;100.00
69570;BME280;56781;42.292;23.146;2023-09-18T00:08:16;96014.69;;;13.70;100.00
69570;BME280;56781;42.292;23.146;2023-09-18T00:10:50;96013.22;;;13.64;100.00
69570;BME280;56781;42.292;23.146;2023-09-18T00:13:19;96009.25;;;13.62;100.00
69570;BME280;56781;42.292;23.146;2023-09-18T00:15:47;96016.78;;;13.73;100.00
69570;BME280;56781;42.292;23.146;2023-09-18T00:18:15;96009.97;;;13.76;100.00
69570;BME280;56781;42.292;23.146;2023-09-18T00:20:43;96005.41;;;13.77;100.00
69570;BME280;56781;42.292;23.146;2023-09-18T00:23:11;96008.69;;;13.73;100.00
69570;BME280;56781;42.292;23.146;2023-09-18T00:25:38;96018.34;;;13.74;100.00
69570;BME280;56781;42.292;23.146;2023-09-18T00:28:07;96008.56;;;13.56;100.00
69570;BME280;56781;42.292;23.146;2023-09-18T00:30:44;96022.88;;;13.43;100.00
69570;BME280;56781;42.292;23.146;2023-09-18T00:33:13;96025.56;;;13.43;100.00
69570;BME280;56781;42.292;23.146;2023-09-18T00:35:45;96010.47;;;13.33;100.00
69570;BME280;56781;42.292;23.146;2023-09-18T00:38:12;96016.66;;;13.56;100.00
69570;BME280;56781;42.292;23.146;2023-09-18T00:40:40;96022.75;;;13.70;100.00
69570;BME280;56781;42.292;23.146;2023-09-18T00:43:08;95994.38;;;13.64;100.00
69570;BME280;56781;42.292;23.146;2023-09-18T00:45:40;96010.91;;;13.71;100.00
69570;BME280;56781;42.292;23.146;2023-09-18T00:48:09;96013.47;;;13.77;100.00
69570;BME280;56781;42.292;23.146;2023-09-18T00:50:37;96019.38;;;13.87;100.00
69570;BME280;56781;42.292;23.146;2023-09-18T00:53:07;96003.53;;;13.86;100.00
69570;BME280;56781;42.292;23.146;2023-09-18T00:55:37;96004.81;;;13.88;100.00
69570;BME280;56781;42.292;23.146;2023-09-18T00:58:07;96008.28;;;13.89;100.00
69570;BME280;56781;42.292;23.146;2023-09-18T01:00:34;96016.38;;;13.89;100.00
69570;BME280;56781;42.292;23.146;2023-09-18T01:03:02;96008.09;;;13.77;100.00
69570;BME280;56781;42.292;23.146;2023-09-18T01:05:33;96004.97;;;13.61;100.00
69570;BME280;56781;42.292;23.146;2023-09-18T01:08:01;96035.34;;;13.61;100.00
69570;BME280;56781;42.292;23.146;2023-09-18T01:10:34;96027.78;;;13.63;100.00
69570;BME280;56781;42.292;23.146;2023-09-18T01:15:36;96026.25;;;13.48;100.00
69570;BME280;56781;42.292;23.146;2023-09-18T01:18:09;96023.88;;;13.47;100.00
69570;BME280;56781;42.292;23.146;2023-09-18T01:20:36;96019.91;;;13.44;100.00
69570;BME280;56781;42.292;23.146;2023-09-18T01:23:03;96035.72;;;13.46;100.00
69570;BME280;56781;42.292;23.146;2023-09-18T01:25:31;96015.19;;;13.27;100.00
69570;BME280;56781;42.292;23.146;2023-09-18T01:28:00;96034.97;;;13.32;100.00
69570;BME280;56781;42.292;23.146;2023-09-18T01:30:27;96019.59;;;13.09;100.00
69570;BME280;56781;42.292;23.146;2023-09-18T01:32:56;96017.63;;;13.01;100.00
69570;BME280;56781;42.292;23.146;2023-09-18T01:35:25;96015.34;;;12.95;100.00
69570;BME280;56781;42.292;23.146;2023-09-18T01:37:57;96020.22;;;12.93;100.00
69570;BME280;56781;42.292;23.146;2023-09-18T01:40:26;96013.69;;;12.85;100.00
69570;BME280;56781;42.292;23.146;2023-09-18T01:42:54;96021.28;;;13.05;100.00
69570;BME280;56781;42.292;23.146;2023-09-18T01:45:21;96022.88;;;13.06;100.00
69570;BME280;56781;42.292;23.146;2023-09-18T01:47:48;96033.31;;;13.08;100.00
69570;BME280;56781;42.292;23.146;2023-09-18T01:50:15;96049.72;;;13.20;100.00
69570;BME280;56781;42.292;23.146;2023-09-18T01:52:43;96023.19;;;13.05;100.00
69570;BME280;56781;42.292;23.146;2023-09-18T01:55:10;96035.03;;;13.04;100.00
69570;BME280;56781;42.292;23.146;2023-09-18T01:57:37;96046.28;;;13.06;100.00
69570;BME280;56781;42.292;23.146;2023-09-18T02:00:05;96061.91;;;13.04;100.00
69570;BME280;56781;42.292;23.146;2023-09-18T02:02:36;96043.22;;;12.99;100.00
69570;BME280;56781;42.292;23.146;2023-09-18T02:05:23;96049.69;;;12.98;100.00
69570;BME280;56781;42.292;23.146;2023-09-18T02:07:51;96049.69;;;12.98;100.00
69570;BME280;56781;42.292;23.146;2023-09-18T02:10:19;96029.78;;;12.99;100.00
69570;BME280;56781;42.292;23.146;2023-09-18T02:12:46;96050.63;;;13.16;100.00
69570;BME280;56781;42.292;23.146;2023-09-18T02:15:14;96037.78;;;13.13;100.00
69570;BME280;56781;42.292;23.146;2023-09-18T02:17:43;96032.66;;;12.89;100.00
69570;BME280;56781;42.292;23.146;2023-09-18T02:20:11;96058.16;;;12.91;100.00
69570;BME280;56781;42.292;23.146;2023-09-18T02:22:39;96036.75;;;12.86;100.00
69570;BME280;56781;42.292;23.146;2023-09-18T02:25:08;96028.69;;;12.86;100.00
69570;BME280;56781;42.292;23.146;2023-09-18T02:27:36;96027.41;;;12.70;100.00
69570;BME280;56781;42.292;23.146;2023-09-18T02:30:03;96055.78;;;12.90;100.00
69570;BME280;56781;42.292;23.146;2023-09-18T02:32:31;96042.63;;;12.88;100.00
69570;BME280;56781;42.292;23.146;2023-09-18T02:34:59;96029.03;;;12.71;100.00
69570;BME280;56781;42.292;23.146;2023-09-18T02:37:27;96033.59;;;12.84;100.00
69570;BME280;56781;42.292;23.146;2023-09-18T02:39:55;96043.66;;;13.15;100.00
69570;BME280;56781;42.292;23.146;2023-09-18T02:42:23;96028.94;;;13.12;100.00
69570;BME280;56781;42.292;23.146;2023-09-18T02:44:50;96047.19;;;13.38;100.00
69570;BME280;56781;42.292;23.146;2023-09-18T02:47:17;96049.78;;;13.43;100.00
69570;BME280;56781;42.292;23.146;2023-09-18T02:49:45;96053.06;;;13.40;100.00
69570;BME280;56781;42.292;23.146;2023-09-18T02:52:12;96031.41;;;13.22;100.00
69570;BME280;56781;42.292;23.146;2023-09-18T02:54:39;96058.34;;;13.45;100.00
69570;BME280;56781;42.292;23.146;2023-09-18T02:57:06;96035.47;;;13.34;100.00
69570;BME280;56781;42.292;23.146;2023-09-18T02:59:33;96033.47;;;13.25;100.00
69570;BME280;56781;42.292;23.146;2023-09-18T03:02:01;96042.44;;;13.35;100.00
69570;BME280;56781;42.292;23.146;2023-09-18T03:04:29;96052.22;;;13.30;100.00
69570;BME280;56781;42.292;23.146;2023-09-18T03:06:57;96039.56;;;13.31;100.00
69570;BME280;56781;42.292;23.146;2023-09-18T03:09:24;96047.81;;;13.35;100.00
69570;BME280;56781;42.292;23.146;2023-09-18T03:11:51;96043.53;;;13.34;100.00
69570;BME280;56781;42.292;23.146;2023-09-18T03:14:18;96044.16;;;13.30;100.00
69570;BME280;56781;42.292;23.146;2023-09-18T03:16:45;96057.72;;;13.48;100.00
69570;BME280;56781;42.292;23.146;2023-09-18T03:19:13;96037.06;;;13.35;100.00
69570;BME280;56781;42.292;23.146;2023-09-18T03:21:40;96041.22;;;13.41;100.00
69570;BME280;56781;42.292;23.146;2023-09-18T03:24:07;96039.22;;;13.46;100.00
69570;BME280;56781;42.292;23.146;2023-09-18T03:26:35;96038.50;;;13.55;100.00
69570;BME280;56781;42.292;23.146;2023-09-18T03:29:02;96029.59;;;13.54;100.00
69570;BME280;56781;42.292;23.146;2023-09-18T03:31:29;96034.63;;;13.47;100.00
69570;BME280;56781;42.292;23.146;2023-09-18T03:33:57;96027.66;;;13.46;100.00
69570;BME280;56781;42.292;23.146;2023-09-18T03:36:24;96057.06;;;13.65;100.00
69570;BME280;56781;42.292;23.146;2023-09-18T03:38:51;96045.16;;;13.57;100.00
69570;BME280;56781;42.292;23.146;2023-09-18T03:41:19;96052.72;;;13.55;100.00
69570;BME280;56781;42.292;23.146;2023-09-18T03:43:46;96042.03;;;13.41;100.00
69570;BME280;56781;42.292;23.146;2023-09-18T03:46:13;96047.31;;;13.33;100.00
69570;BME280;56781;42.292;23.146;2023-09-18T03:48:40;96035.31;;;13.30;100.00
69570;BME280;56781;42.292;23.146;2023-09-18T03:51:08;96045.00;;;13.40;100.00
69570;BME280;56781;42.292;23.146;2023-09-18T03:53:35;96043.03;;;13.32;100.00
69570;BME280;56781;42.292;23.146;2023-09-18T03:56:03;96040.41;;;13.40;100.00
69570;BME280;56781;42.292;23.146;2023-09-18T03:58:30;96047.75;;;13.48;100.00
69570;BME280;56781;42.292;23.146;2023-09-18T04:01:00;96038.84;;;13.39;100.00
69570;BME280;56781;42.292;23.146;2023-09-18T04:03:28;96037.94;;;13.44;100.00
69570;BME280;56781;42.292;23.146;2023-09-18T04:05:56;96049.03;;;13.51;100.00
69570;BME280;56781;42.292;23.146;2023-09-18T04:08:23;96039.34;;;13.41;100.00
69570;BME280;56781;42.292;23.146;2023-09-18T04:10:50;96041.97;;;13.55;100.00
69570;BME280;56781;42.292;23.146;2023-09-18T04:13:17;96055.81;;;13.48;100.00
69570;BME280;56781;42.292;23.146;2023-09-18T04:15:45;96034.69;;;13.33;100.00
69570;BME280;56781;42.292;23.146;2023-09-18T04:18:12;96064.56;;;13.54;100.00
69570;BME280;56781;42.292;23.146;2023-09-18T04:20:40;96050.00;;;13.33;100.00
69570;BME280;56781;42.292;23.146;2023-09-18T04:23:18;96043.84;;;13.32;100.00
69570;BME280;56781;42.292;23.146;2023-09-18T04:25:46;96057.56;;;13.44;100.00
69570;BME280;56781;42.292;23.146;2023-09-18T04:28:15;96056.88;;;13.61;100.00
69570;BME280;56781;42.292;23.146;2023-09-18T04:30:43;96055.03;;;13.70;100.00
69570;BME280;56781;42.292;23.146;2023-09-18T04:33:10;96039.41;;;13.50;100.00
69570;BME280;56781;42.292;23.146;2023-09-18T04:35:40;96042.09;;;13.50;100.00
69570;BME280;56781;42.292;23.146;2023-09-18T04:38:07;96039.16;;;13.60;100.00
69570;BME280;56781;42.292;23.146;2023-09-18T04:40:37;96047.13;;;13.65;100.00
69570;BME280;56781;42.292;23.146;2023-09-18T04:43:08;96044.84;;;13.59;100.00
69570;BME280;56781;42.292;23.146;2023-09-18T04:45:35;96036.47;;;13.60;100.00
69570;BME280;56781;42.292;23.146;2023-09-18T04:48:03;96049.47;;;13.67;100.00
69570;BME280;56781;42.292;23.146;2023-09-18T04:50:32;96050.25;;;13.67;100.00
69570;BME280;56781;42.292;23.146;2023-09-18T04:53:01;96038.75;;;13.75;100.00
69570;BME280;56781;42.292;23.146;2023-09-18T04:55:28;96046.72;;;13.58;100.00
69570;BME280;56781;42.292;23.146;2023-09-18T04:57:55;96075.97;;;13.73;100.00
69570;BME280;56781;42.292;23.146;2023-09-18T05:00:24;96062.38;;;13.79;100.00
69570;BME280;56781;42.292;23.146;2023-09-18T05:02:53;96060.88;;;13.95;100.00
69570;BME280;56781;42.292;23.146;2023-09-18T05:05:20;96044.72;;;13.95;100.00
69570;BME280;56781;42.292;23.146;2023-09-18T05:07:48;96056.28;;;14.18;100.00
69570;BME280;56781;42.292;23.146;2023-09-18T05:10:15;96046.16;;;14.24;100.00
69570;BME280;56781;42.292;23.146;2023-09-18T05:12:42;96056.03;;;14.37;100.00
69570;BME280;56781;42.292;23.146;2023-09-18T05:15:09;96052.59;;;14.45;100.00
69570;BME280;56781;42.292;23.146;2023-09-18T05:17:47;96031.03;;;14.45;100.00
69570;BME280;56781;42.292;23.146;2023-09-18T05:20:25;96070.31;;;14.77;100.00
69570;BME280;56781;42.292;23.146;2023-09-18T05:22:58;96060.53;;;14.90;100.00
69570;BME280;56781;42.292;23.146;2023-09-18T05:25:28;96061.34;;;14.99;100.00
69570;BME280;56781;42.292;23.146;2023-09-18T05:28:00;96055.66;;;15.10;100.00
69570;BME280;56781;42.292;23.146;2023-09-18T05:30:31;96070.25;;;15.43;100.00
69570;BME280;56781;42.292;23.146;2023-09-18T05:33:02;96050.75;;;15.46;100.00
69570;BME280;56781;42.292;23.146;2023-09-18T05:35:36;96058.22;;;15.58;100.00
69570;BME280;56781;42.292;23.146;2023-09-18T05:38:06;96085.97;;;16.02;100.00
69570;BME280;56781;42.292;23.146;2023-09-18T05:40:34;96060.59;;;15.86;100.00
69570;BME280;56781;42.292;23.146;2023-09-18T05:43:01;96074.34;;;16.19;100.00
69570;BME280;56781;42.292;23.146;2023-09-18T05:45:29;96080.91;;;16.56;100.00
69570;BME280;56781;42.292;23.146;2023-09-18T05:47:58;96067.09;;;16.49;100.00
69570;BME280;56781;42.292;23.146;2023-09-18T05:50:32;96052.50;;;16.42;100.00
69570;BME280;56781;42.292;23.146;2023-09-18T05:53:00;96071.44;;;16.71;100.00
69570;BME280;56781;42.292;23.146;2023-09-18T05:55:31;96067.69;;;16.93;100.00
69570;BME280;56781;42.292;23.146;2023-09-18T05:57:59;96070.06;;;17.24;100.00
69570;BME280;56781;42.292;23.146;2023-09-18T06:00:30;96080.25;;;17.48;100.00
69570;BME280;56781;42.292;23.146;2023-09-18T06:03:00;96075.28;;;17.71;100.00
69570;BME280;56781;42.292;23.146;2023-09-18T06:05:28;96068.56;;;17.57;100.00
69570;BME280;56781;42.292;23.146;2023-09-18T06:07:58;96062.84;;;17.28;100.00
69570;BME280;56781;42.292;23.146;2023-09-18T06:10:26;96057.91;;;17.10;100.00
69570;BME280;56781;42.292;23.146;2023-09-18T06:12:54;96054.63;;;17.25;100.00
69570;BME280;56781;42.292;23.146;2023-09-18T06:15:21;96069.16;;;17.62;100.00
69570;BME280;56781;42.292;23.146;2023-09-18T06:17:48;96084.16;;;17.81;100.00
69570;BME280;56781;42.292;23.146;2023-09-18T06:20:16;96077.69;;;18.06;100.00
69570;BME280;56781;42.292;23.146;2023-09-18T06:22:44;96061.59;;;18.22;100.00
69570;BME280;56781;42.292;23.146;2023-09-18T06:25:11;96079.56;;;18.39;100.00
69570;BME280;56781;42.292;23.146;2023-09-18T06:27:38;96066.59;;;18.32;100.00
69570;BME280;56781;42.292;23.146;2023-09-18T06:30:06;96068.47;;;18.77;100.00
69570;BME280;56781;42.292;23.146;2023-09-18T06:32:34;96054.91;;;18.90;100.00
69570;BME280;56781;42.292;23.146;2023-09-18T06:35:02;96070.00;;;19.27;100.00
69570;BME280;56781;42.292;23.146;2023-09-18T06:37:29;96064.44;;;19.36;100.00
69570;BME280;56781;42.292;23.146;2023-09-18T06:39:57;96085.47;;;19.52;100.00
69570;BME280;56781;42.292;23.146;2023-09-18T06:42:24;96078.13;;;19.92;100.00
69570;BME280;56781;42.292;23.146;2023-09-18T06:44:51;96063.47;;;20.25;100.00
69570;BME280;56781;42.292;23.146;2023-09-18T06:47:19;96071.56;;;20.09;99.60
69570;BME280;56781;42.292;23.146;2023-09-18T06:49:46;96071.25;;;20.27;99.51
69570;BME280;56781;42.292;23.146;2023-09-18T06:52:14;96079.81;;;20.13;100.00
69570;BME280;56781;42.292;23.146;2023-09-18T06:54:41;96078.38;;;20.31;100.00
69570;BME280;56781;42.292;23.146;2023-09-18T06:57:08;96075.31;;;20.33;100.00
69570;BME280;56781;42.292;23.146;2023-09-18T06:59:35;96062.97;;;20.67;97.66
69570;BME280;56781;42.292;23.146;2023-09-18T07:02:03;96060.94;;;20.96;97.77
69570;BME280;56781;42.292;23.146;2023-09-18T07:04:30;96058.53;;;21.10;97.43
69570;BME280;56781;42.292;23.146;2023-09-18T07:06:57;96069.09;;;20.96;97.21
69570;BME280;56781;42.292;23.146;2023-09-18T07:09:24;96062.25;;;20.86;97.35
69570;BME280;56781;42.292;23.146;2023-09-18T07:11:52;96066.00;;;21.13;98.39
69570;BME280;56781;42.292;23.146;2023-09-18T07:14:20;96057.69;;;21.41;94.35
69570;BME280;56781;42.292;23.146;2023-09-18T07:16:47;96076.38;;;21.08;93.89
69570;BME280;56781;42.292;23.146;2023-09-18T07:19:14;96065.41;;;21.04;97.41
69570;BME280;56781;42.292;23.146;2023-09-18T07:21:44;96065.56;;;21.46;93.60
69570;BME280;56781;42.292;23.146;2023-09-18T07:24:11;96072.41;;;21.95;93.30
69570;BME280;56781;42.292;23.146;2023-09-18T07:26:47;96059.56;;;21.57;90.59
69570;BME280;56781;42.292;23.146;2023-09-18T07:29:15;96062.09;;;22.04;92.13
69570;BME280;56781;42.292;23.146;2023-09-18T07:31:43;96069.78;;;21.99;90.83
69570;BME280;56781;42.292;23.146;2023-09-18T07:34:11;96060.63;;;22.10;91.44
69570;BME280;56781;42.292;23.146;2023-09-18T07:36:40;96065.53;;;22.21;90.51
69570;BME280;56781;42.292;23.146;2023-09-18T07:39:07;96076.94;;;22.49;89.30
69570;BME280;56781;42.292;23.146;2023-09-18T07:41:34;96067.19;;;22.71;90.70
69570;BME280;56781;42.292;23.146;2023-09-18T07:44:01;96072.94;;;22.43;86.92
69570;BME280;56781;42.292;23.146;2023-09-18T07:46:28;96060.66;;;21.72;89.65
69570;BME280;56781;42.292;23.146;2023-09-18T07:48:56;96057.34;;;21.27;90.80
69570;BME280;56781;42.292;23.146;2023-09-18T07:51:23;96055.06;;;21.45;91.59
69570;BME280;56781;42.292;23.146;2023-09-18T07:53:50;96071.25;;;21.06;94.53
69570;BME280;56781;42.292;23.146;2023-09-18T07:56:17;96076.16;;;21.67;93.88
69570;BME280;56781;42.292;23.146;2023-09-18T07:58:46;96059.28;;;22.20;90.93
69570;BME280;56781;42.292;23.146;2023-09-18T08:01:13;96065.66;;;22.74;89.96
69570;BME280;56781;42.292;23.146;2023-09-18T08:03:43;96067.47;;;22.66;85.09
69570;BME280;56781;42.292;23.146;2023-09-18T08:06:10;96065.34;;;21.90;88.93
69570;BME280;56781;42.292;23.146;2023-09-18T08:08:38;96063.84;;;21.22;91.82
69570;BME280;56781;42.292;23.146;2023-09-18T08:11:09;96058.38;;;20.40;94.83
69570;BME280;56781;42.292;23.146;2023-09-18T08:13:37;96063.97;;;20.15;98.75
69570;BME280;56781;42.292;23.146;2023-09-18T08:16:06;96052.19;;;20.11;100.00
69570;BME280;56781;42.292;23.146;2023-09-18T08:18:34;96063.88;;;20.27;96.83
69570;BME280;56781;42.292;23.146;2023-09-18T08:21:02;96061.00;;;20.20;96.14
69570;BME280;56781;42.292;23.146;2023-09-18T08:23:29;96053.22;;;19.90;98.04
69570;BME280;56781;42.292;23.146;2023-09-18T08:25:56;96042.03;;;20.24;97.93
69570;BME280;56781;42.292;23.146;2023-09-18T08:28:24;96038.91;;;21.01;95.63
69570;BME280;56781;42.292;23.146;2023-09-18T08:30:51;96044.78;;;21.58;93.34
69570;BME280;56781;42.292;23.146;2023-09-18T08:33:18;96041.72;;;21.79;90.81
69570;BME280;56781;42.292;23.146;2023-09-18T08:35:45;96018.56;;;21.69;91.80
69570;BME280;56781;42.292;23.146;2023-09-18T08:38:16;96017.97;;;21.79;91.86
69570;BME280;56781;42.292;23.146;2023-09-18T08:40:44;96023.16;;;22.27;89.04
69570;BME280;56781;42.292;23.146;2023-09-18T08:43:14;96028.56;;;22.04;88.10
69570;BME280;56781;42.292;23.146;2023-09-18T08:45:51;96010.56;;;21.99;90.15
69570;BME280;56781;42.292;23.146;2023-09-18T08:48:20;96025.41;;;22.44;87.69
69570;BME280;56781;42.292;23.146;2023-09-18T08:50:48;96011.41;;;22.46;89.36
69570;BME280;56781;42.292;23.146;2023-09-18T08:53:16;96016.66;;;21.92;92.43
69570;BME280;56781;42.292;23.146;2023-09-18T08:55:43;96008.06;;;22.33;89.30
69570;BME280;56781;42.292;23.146;2023-09-18T08:58:10;96014.44;;;22.41;90.08
69570;BME280;56781;42.292;23.146;2023-09-18T09:00:37;96026.03;;;22.34;87.86
69570;BME280;56781;42.292;23.146;2023-09-18T09:03:05;96006.97;;;22.61;83.97
69570;BME280;56781;42.292;23.146;2023-09-18T09:05:33;96011.75;;;22.67;84.88
69570;BME280;56781;42.292;23.146;2023-09-18T09:08:00;96005.28;;;22.52;84.66
69570;BME280;56781;42.292;23.146;2023-09-18T09:10:28;95993.88;;;22.70;84.58
69570;BME280;56781;42.292;23.146;2023-09-18T09:12:59;96004.78;;;22.70;84.66
69570;BME280;56781;42.292;23.146;2023-09-18T09:15:32;95984.63;;;22.78;83.59
69570;BME280;56781;42.292;23.146;2023-09-18T09:18:06;95973.72;;;22.78;84.41
69570;BME280;56781;42.292;23.146;2023-09-18T09:20:35;95987.34;;;22.78;83.53
69570;BME280;56781;42.292;23.146;2023-09-18T09:23:04;95971.47;;;22.61;84.68
69570;BME280;56781;42.292;23.146;2023-09-18T09:25:32;95971.75;;;22.78;89.17
69570;BME280;56781;42.292;23.146;2023-09-18T09:28:02;95964.03;;;23.11;82.92
69570;BME280;56781;42.292;23.146;2023-09-18T09:30:33;95979.06;;;23.24;82.57
69570;BME280;56781;42.292;23.146;2023-09-18T09:33:02;95960.72;;;23.25;80.83
69570;BME280;56781;42.292;23.146;2023-09-18T09:35:32;95965.06;;;23.29;76.61
69570;BME280;56781;42.292;23.146;2023-09-18T09:38:07;95964.41;;;23.09;78.66
69570;BME280;56781;42.292;23.146;2023-09-18T09:40:35;95954.75;;;23.15;81.30
69570;BME280;56781;42.292;23.146;2023-09-18T09:43:08;95962.72;;;23.31;81.99
69570;BME280;56781;42.292;23.146;2023-09-18T09:45:35;95971.28;;;23.60;82.28
69570;BME280;56781;42.292;23.146;2023-09-18T09:48:04;95952.25;;;23.67;78.90
69570;BME280;56781;42.292;23.146;2023-09-18T09:50:35;95960.81;;;23.65;79.69
69570;BME280;56781;42.292;23.146;2023-09-18T09:53:14;95959.19;;;23.95;82.13
69570;BME280;56781;42.292;23.146;2023-09-18T09:55:41;95946.34;;;23.65;76.73
69570;BME280;56781;42.292;23.146;2023-09-18T09:58:09;95959.25;;;23.64;76.98
69570;BME280;56781;42.292;23.146;2023-09-18T10:03:14;95924.75;;;23.90;78.95
69570;BME280;56781;42.292;23.146;2023-09-18T10:05:44;95921.66;;;23.92;74.50
69570;BME280;56781;42.292;23.146;2023-09-18T10:08:14;95909.84;;;24.28;65.71
69570;BME280;56781;42.292;23.146;2023-09-18T10:10:48;95924.00;;;24.38;63.80
69570;BME280;56781;42.292;23.146;2023-09-18T10:13:23;95910.88;;;24.61;67.89
69570;BME280;56781;42.292;23.146;2023-09-18T10:15:51;95920.34;;;24.74;68.43
69570;BME280;56781;42.292;23.146;2023-09-18T10:18:44;95909.75;;;24.66;65.23
69570;BME280;56781;42.292;23.146;2023-09-18T10:24:22;95908.75;;;24.99;65.59
69570;BME280;56781;42.292;23.146;2023-09-18T10:29:22;95901.16;;;24.67;63.96
69570;BME280;56781;42.292;23.146;2023-09-18T10:31:52;95872.63;;;24.72;63.34
69570;BME280;56781;42.292;23.146;2023-09-18T10:34:22;95875.81;;;24.85;63.39
69570;BME280;56781;42.292;23.146;2023-09-18T10:36:52;95864.03;;;24.73;64.73
69570;BME280;56781;42.292;23.146;2023-09-18T10:39:26;95883.38;;;25.09;64.21
69570;BME280;56781;42.292;23.146;2023-09-18T10:41:58;95868.44;;;24.99;64.11
69570;BME280;56781;42.292;23.146;2023-09-18T10:44:29;95857.06;;;24.94;64.21
69570;BME280;56781;42.292;23.146;2023-09-18T10:47:00;95864.81;;;24.77;62.67
69570;BME280;56781;42.292;23.146;2023-09-18T10:49:28;95856.59;;;24.74;60.48
69570;BME280;56781;42.292;23.146;2023-09-18T10:51:56;95855.41;;;24.75;62.20
69570;BME280;56781;42.292;23.146;2023-09-18T10:54:26;95848.84;;;24.94;59.79
69570;BME280;56781;42.292;23.146;2023-09-18T10:56:58;95853.59;;;25.08;59.10
69570;BME280;56781;42.292;23.146;2023-09-18T10:59:27;95841.41;;;24.87;58.57
69570;BME280;56781;42.292;23.146;2023-09-18T11:01:55;95849.78;;;25.19;58.07
69570;BME280;56781;42.292;23.146;2023-09-18T11:04:23;95845.06;;;25.24;55.83
69570;BME280;56781;42.292;23.146;2023-09-18T11:09:23;95844.72;;;25.25;55.84
69570;BME280;56781;42.292;23.146;2023-09-18T11:12:03;95846.66;;;25.32;54.98
69570;BME280;56781;42.292;23.146;2023-09-18T11:14:56;95832.22;;;25.42;59.31
69570;BME280;56781;42.292;23.146;2023-09-18T11:22:51;95820.41;;;25.20;54.59
69570;BME280;56781;42.292;23.146;2023-09-18T11:25:39;95822.81;;;25.43;57.20
69570;BME280;56781;42.292;23.146;2023-09-18T11:28:22;95793.78;;;25.20;55.74
69570;BME280;56781;42.292;23.146;2023-09-18T11:30:57;95800.84;;;25.25;52.55
69570;BME280;56781;42.292;23.146;2023-09-18T11:33:37;95810.25;;;25.28;53.55
69570;BME280;56781;42.292;23.146;2023-09-18T11:36:09;95819.69;;;25.48;53.78
69570;BME280;56781;42.292;23.146;2023-09-18T11:38:58;95804.81;;;25.49;54.52
69570;BME280;56781;42.292;23.146;2023-09-18T11:41:36;95791.50;;;25.58;56.79
69570;BME280;56781;42.292;23.146;2023-09-18T11:46:48;95800.91;;;25.68;53.90
69570;BME280;56781;42.292;23.146;2023-09-18T11:49:22;95798.16;;;25.72;55.71
69570;BME280;56781;42.292;23.146;2023-09-18T11:51:50;95799.34;;;25.78;54.20
69570;BME280;56781;42.292;23.146;2023-09-18T11:54:18;95790.72;;;25.76;56.42
69570;BME280;56781;42.292;23.146;2023-09-18T11:56:45;95787.59;;;25.67;56.24
69570;BME280;56781;42.292;23.146;2023-09-18T11:59:12;95778.97;;;25.61;56.11
69570;BME280;56781;42.292;23.146;2023-09-18T12:01:39;95795.41;;;25.64;56.58
69570;BME280;56781;42.292;23.146;2023-09-18T12:04:07;95796.97;;;25.48;54.98
69570;BME280;56781;42.292;23.146;2023-09-18T12:06:35;95785.59;;;25.46;55.77
69570;BME280;56781;42.292;23.146;2023-09-18T12:09:03;95783.69;;;25.60;55.43
69570;BME280;56781;42.292;23.146;2023-09-18T12:11:30;95780.91;;;25.53;57.53
69570;BME280;56781;42.292;23.146;2023-09-18T12:13:57;95794.28;;;25.83;58.39
69570;BME280;56781;42.292;23.146;2023-09-18T12:16:25;95777.81;;;25.65;56.06
69570;BME280;56781;42.292;23.146;2023-09-18T12:18:52;95777.41;;;25.74;56.89
69570;BME280;56781;42.292;23.146;2023-09-18T12:21:19;95781.34;;;25.73;54.81
69570;BME280;56781;42.292;23.146;2023-09-18T12:23:46;95785.66;;;25.85;56.80
69570;BME280;56781;42.292;23.146;2023-09-18T12:26:15;95773.09;;;25.84;55.35
69570;BME280;56781;42.292;23.146;2023-09-18T12:28:43;95762.50;;;25.72;55.99
69570;BME280;56781;42.292;23.146;2023-09-18T12:31:14;95757.03;;;25.50;55.43
69570;BME280;56781;42.292;23.146;2023-09-18T12:33:42;95784.47;;;25.57;56.42
69570;BME280;56781;42.292;23.146;2023-09-18T12:36:19;95770.34;;;25.55;54.12
69570;BME280;56781;42.292;23.146;2023-09-18T12:38:56;95780.94;;;25.60;55.62
69570;BME280;56781;42.292;23.146;2023-09-18T12:41:25;95773.09;;;25.55;54.77
69570;BME280;56781;42.292;23.146;2023-09-18T12:43:58;95771.94;;;25.71;56.54
69570;BME280;56781;42.292;23.146;2023-09-18T12:46:26;95768.38;;;25.70;55.32
69570;BME280;56781;42.292;23.146;2023-09-18T12:48:54;95770.38;;;25.73;55.14
69570;BME280;56781;42.292;23.146;2023-09-18T12:51:29;95764.47;;;25.68;53.39
69570;BME280;56781;42.292;23.146;2023-09-18T12:54:02;95755.47;;;25.63;54.91
69570;BME280;56781;42.292;23.146;2023-09-18T12:56:40;95760.53;;;25.51;53.64
69570;BME280;56781;42.292;23.146;2023-09-18T12:59:08;95766.44;;;25.60;56.15
69570;BME280;56781;42.292;23.146;2023-09-18T13:01:46;95768.38;;;25.59;54.31
69570;BME280;56781;42.292;23.146;2023-09-18T13:04:14;95752.72;;;25.63;53.64
69570;BME280;56781;42.292;23.146;2023-09-18T13:06:42;95760.16;;;25.70;56.20
69570;BME280;56781;42.292;23.146;2023-09-18T13:09:18;95765.63;;;25.70;56.41
69570;BME280;56781;42.292;23.146;2023-09-18T13:11:57;95753.50;;;25.68;55.49
69570;BME280;56781;42.292;23.146;2023-09-18T13:14:25;95751.16;;;25.70;52.07
69570;BME280;56781;42.292;23.146;2023-09-18T13:16:52;95749.22;;;25.63;54.13